sensor_id;sensor_type;location;lat;lon;timestamp;pressure;altitude;pressure_sealevel;temperature;humidity
75650;BME280;64245;51.282;22.494;2023-04-03T00:01:33;99335.53;;;0.38;100.00
75650;BME280;64245;51.282;22.494;2023-04-03T00:03:58;99328.19;;;0.25;100.00
75650;BME280;64245;51.282;22.494;2023-04-03T00:06:25;99315.91;;;0.07;100.00
75650;BME280;64245;51.282;22.494;2023-04-03T00:08:51;99323.38;;;0.16;100.00
75650;BME280;64245;51.282;22.494;2023-04-03T00:11:17;99335.13;;;0.11;100.00
75650;BME280;64245;51.282;22.494;2023-04-03T00:13:44;99325.47;;;0.10;100.00
75650;BME280;64245;51.282;22.494;2023-04-03T00:16:11;99314.41;;;0.02;100.00
75650;BME280;64245;51.282;22.494;2023-04-03T00:18:37;99312.88;;;-0.03;100.00
75650;BME280;64245;51.282;22.494;2023-04-03T00:21:04;99309.75;;;0.07;100.00
75650;BME280;64245;51.282;22.494;2023-04-03T00:23:29;99327.41;;;0.23;100.00
75650;BME280;64245;51.282;22.494;2023-04-03T00:25:55;99336.56;;;0.18;100.00
75650;BME280;64245;51.282;22.494;2023-04-03T00:28:21;99327.03;;;0.14;100.00
75650;BME280;64245;51.282;22.494;2023-04-03T00:30:51;99334.19;;;0.12;100.00
75650;BME280;64245;51.282;22.494;2023-04-03T00:33:17;99330.84;;;0.08;100.00
75650;BME280;64245;51.282;22.494;2023-04-03T00:35:43;99334.13;;;0.13;100.00
75650;BME280;64245;51.282;22.494;2023-04-03T00:38:09;99332.63;;;0.08;100.00
75650;BME280;64245;51.282;22.494;2023-04-03T00:40:37;99322.44;;;0.17;100.00
75650;BME280;64245;51.282;22.494;2023-04-03T00:43:11;99319.31;;;0.09;100.00
75650;BME280;64245;51.282;22.494;2023-04-03T00:45:40;99337.28;;;0.20;100.00
75650;BME280;64245;51.282;22.494;2023-04-03T00:48:07;99344.38;;;0.19;100.00
75650;BME280;64245;51.282;22.494;2023-04-03T00:50:36;99328.13;;;0.10;100.00
75650;BME280;64245;51.282;22.494;2023-04-03T00:53:04;99329.69;;;0.14;100.00
75650;BME280;64245;51.282;22.494;2023-04-03T00:55:31;99339.19;;;0.18;100.00
75650;BME280;64245;51.282;22.494;2023-04-03T00:57:57;99338.41;;;0.16;100.00
75650;BME280;64245;51.282;22.494;2023-04-03T01:00:24;99334.84;;;0.17;100.00
75650;BME280;64245;51.282;22.494;2023-04-03T01:02:51;99336.56;;;0.18;100.00
75650;BME280;64245;51.282;22.494;2023-04-03T01:05:18;99306.81;;;-0.05;100.00
75650;BME280;64245;51.282;22.494;2023-04-03T01:07:44;99325.47;;;0.10;100.00
75650;BME280;64245;51.282;22.494;2023-04-03T01:10:13;99350.94;;;0.12;100.00
75650;BME280;64245;51.282;22.494;2023-04-03T01:12:42;99349.31;;;0.10;100.00
75650;BME280;64245;51.282;22.494;2023-04-03T01:15:14;99352.59;;;0.15;100.00
75650;BME280;64245;51.282;22.494;2023-04-03T01:17:54;99348.75;;;0.03;100.00
75650;BME280;64245;51.282;22.494;2023-04-03T01:25:36;99320.81;;;-0.03;100.00
75650;BME280;64245;51.282;22.494;2023-04-03T01:28:02;99341.06;;;-0.02;100.00
75650;BME280;64245;51.282;22.494;2023-04-03T01:30:33;99335.84;;;-0.20;100.00
75650;BME280;64245;51.282;22.494;2023-04-03T01:32:59;99369.47;;;-0.05;100.00
75650;BME280;64245;51.282;22.494;2023-04-03T01:35:25;99362.31;;;-0.03;100.00
75650;BME280;64245;51.282;22.494;2023-04-03T01:37:51;99375.16;;;0.05;100.00
75650;BME280;64245;51.282;22.494;2023-04-03T01:40:16;99366.66;;;-0.19;100.00
75650;BME280;64245;51.282;22.494;2023-04-03T01:42:42;99344.78;;;-0.23;100.00
75650;BME280;64245;51.282;22.494;2023-04-03T01:45:08;99364.69;;;-0.16;100.00
75650;BME280;64245;51.282;22.494;2023-04-03T01:47:34;99383.63;;;-0.06;100.00
75650;BME280;64245;51.282;22.494;2023-04-03T01:50:00;99383.78;;;-0.09;100.00
75650;BME280;64245;51.282;22.494;2023-04-03T01:52:25;99355.59;;;-0.27;100.00
75650;BME280;64245;51.282;22.494;2023-04-03T01:54:51;99376.22;;;-0.17;100.00
75650;BME280;64245;51.282;22.494;2023-04-03T01:57:17;99352.88;;;-0.26;100.00
75650;BME280;64245;51.282;22.494;2023-04-03T01:59:43;99377.84;;;-0.14;100.00
75650;BME280;64245;51.282;22.494;2023-04-03T02:02:08;99367.03;;;-0.27;100.00
75650;BME280;64245;51.282;22.494;2023-04-03T02:04:34;99374.75;;;-0.22;100.00
75650;BME280;64245;51.282;22.494;2023-04-03T02:07:00;99355.00;;;-0.34;100.00
75650;BME280;64245;51.282;22.494;2023-04-03T02:09:25;99370.19;;;-0.38;100.00
75650;BME280;64245;51.282;22.494;2023-04-03T02:11:52;99362.63;;;-0.45;100.00
75650;BME280;64245;51.282;22.494;2023-04-03T02:14:18;99367.06;;;-0.46;100.00
75650;BME280;64245;51.282;22.494;2023-04-03T02:16:44;99394.28;;;-0.25;100.00
75650;BME280;64245;51.282;22.494;2023-04-03T02:19:09;99397.72;;;-0.23;100.00
75650;BME280;64245;51.282;22.494;2023-04-03T02:21:35;99383.41;;;-0.38;100.00
75650;BME280;64245;51.282;22.494;2023-04-03T02:24:01;99395.13;;;-0.24;100.00
75650;BME280;64245;51.282;22.494;2023-04-03T02:26:26;99376.25;;;-0.36;100.00
75650;BME280;64245;51.282;22.494;2023-04-03T02:28:52;99367.53;;;-0.38;100.00
75650;BME280;64245;51.282;22.494;2023-04-03T02:31:18;99394.13;;;-0.22;100.00
75650;BME280;64245;51.282;22.494;2023-04-03T02:33:43;99379.91;;;-0.38;100.00
75650;BME280;64245;51.282;22.494;2023-04-03T02:36:09;99400.22;;;-0.20;100.00
75650;BME280;64245;51.282;22.494;2023-04-03T02:38:35;99384.06;;;-0.32;100.00
75650;BME280;64245;51.282;22.494;2023-04-03T02:41:03;99393.34;;;-0.24;100.00
75650;BME280;64245;51.282;22.494;2023-04-03T02:43:29;99397.47;;;-0.18;100.00
75650;BME280;64245;51.282;22.494;2023-04-03T02:45:55;99406.50;;;-0.22;100.00
75650;BME280;64245;51.282;22.494;2023-04-03T02:48:21;99389.47;;;-0.36;100.00
75650;BME280;64245;51.282;22.494;2023-04-03T02:50:47;99393.63;;;-0.30;100.00
75650;BME280;64245;51.282;22.494;2023-04-03T02:53:13;99398.28;;;-0.35;100.00
75650;BME280;64245;51.282;22.494;2023-04-03T02:55:38;99391.19;;;-0.35;100.00
75650;BME280;64245;51.282;22.494;2023-04-03T02:58:05;99395.41;;;-0.30;100.00
75650;BME280;64245;51.282;22.494;2023-04-03T03:00:30;99395.88;;;-0.40;100.00
75650;BME280;64245;51.282;22.494;2023-04-03T03:02:56;99376.22;;;-0.53;100.00
75650;BME280;64245;51.282;22.494;2023-04-03T03:05:22;99383.34;;;-0.55;100.00
75650;BME280;64245;51.282;22.494;2023-04-03T03:07:48;99405.69;;;-0.42;100.00
75650;BME280;64245;51.282;22.494;2023-04-03T03:10:13;99409.75;;;-0.53;100.00
75650;BME280;64245;51.282;22.494;2023-04-03T03:12:39;99407.94;;;-0.53;100.00
75650;BME280;64245;51.282;22.494;2023-04-03T03:15:06;99409.97;;;-0.58;100.00
75650;BME280;64245;51.282;22.494;2023-04-03T03:17:32;99408.94;;;-0.55;100.00
75650;BME280;64245;51.282;22.494;2023-04-03T03:19:58;99414.69;;;-0.64;100.00
75650;BME280;64245;51.282;22.494;2023-04-03T03:22:24;99415.53;;;-0.64;100.00
75650;BME280;64245;51.282;22.494;2023-04-03T03:24:50;99411.03;;;-0.81;100.00
75650;BME280;64245;51.282;22.494;2023-04-03T03:27:15;99404.75;;;-0.78;100.00
75650;BME280;64245;51.282;22.494;2023-04-03T03:29:42;99406.63;;;-0.80;100.00
75650;BME280;64245;51.282;22.494;2023-04-03T03:32:08;99424.69;;;-0.71;100.00
75650;BME280;64245;51.282;22.494;2023-04-03T03:34:33;99410.97;;;-0.79;100.00
75650;BME280;64245;51.282;22.494;2023-04-03T03:36:59;99408.53;;;-0.84;100.00
75650;BME280;64245;51.282;22.494;2023-04-03T03:39:25;99424.81;;;-0.74;100.00
75650;BME280;64245;51.282;22.494;2023-04-03T03:41:51;99423.53;;;-0.84;100.00
75650;BME280;64245;51.282;22.494;2023-04-03T03:44:19;99413.75;;;-1.01;100.00
75650;BME280;64245;51.282;22.494;2023-04-03T03:46:45;99433.47;;;-0.89;100.00
75650;BME280;64245;51.282;22.494;2023-04-03T03:49:10;99428.53;;;-0.97;100.00
75650;BME280;64245;51.282;22.494;2023-04-03T03:51:38;99413.88;;;-1.04;100.00
75650;BME280;64245;51.282;22.494;2023-04-03T03:54:04;99420.81;;;-1.01;100.00
75650;BME280;64245;51.282;22.494;2023-04-03T03:56:31;99439.88;;;-0.95;100.00
75650;BME280;64245;51.282;22.494;2023-04-03T03:58:56;99410.31;;;-1.03;100.00
75650;BME280;64245;51.282;22.494;2023-04-03T04:01:23;99428.41;;;-1.14;99.94
75650;BME280;64245;51.282;22.494;2023-04-03T04:03:49;99433.38;;;-1.07;100.00
75650;BME280;64245;51.282;22.494;2023-04-03T04:06:15;99439.25;;;-1.00;100.00
75650;BME280;64245;51.282;22.494;2023-04-03T04:08:40;99419.38;;;-1.29;99.09
75650;BME280;64245;51.282;22.494;2023-04-03T04:11:07;99437.91;;;-1.10;99.59
75650;BME280;64245;51.282;22.494;2023-04-03T04:13:33;99453.13;;;-1.15;99.16
75650;BME280;64245;51.282;22.494;2023-04-03T04:15:59;99454.13;;;-1.18;99.79
75650;BME280;64245;51.282;22.494;2023-04-03T04:18:25;99455.75;;;-1.15;99.59
75650;BME280;64245;51.282;22.494;2023-04-03T04:20:51;99449.09;;;-1.24;99.34
75650;BME280;64245;51.282;22.494;2023-04-03T04:23:17;99443.97;;;-1.27;99.90
75650;BME280;64245;51.282;22.494;2023-04-03T04:25:45;99461.41;;;-1.23;99.31
75650;BME280;64245;51.282;22.494;2023-04-03T04:28:11;99447.72;;;-1.32;99.61
75650;BME280;64245;51.282;22.494;2023-04-03T04:30:36;99471.84;;;-1.20;100.00
75650;BME280;64245;51.282;22.494;2023-04-03T04:33:02;99477.13;;;-1.20;98.96
75650;BME280;64245;51.282;22.494;2023-04-03T04:35:28;99475.66;;;-1.27;98.24
75650;BME280;64245;51.282;22.494;2023-04-03T04:37:54;99481.19;;;-1.33;98.45
75650;BME280;64245;51.282;22.494;2023-04-03T04:40:20;99459.22;;;-1.33;98.17
75650;BME280;64245;51.282;22.494;2023-04-03T04:42:46;99468.66;;;-1.28;97.30
75650;BME280;64245;51.282;22.494;2023-04-03T04:45:12;99479.34;;;-1.31;97.40
75650;BME280;64245;51.282;22.494;2023-04-03T04:47:38;99489.97;;;-1.12;97.39
75650;BME280;64245;51.282;22.494;2023-04-03T04:50:04;99467.28;;;-1.36;96.62
75650;BME280;64245;51.282;22.494;2023-04-03T04:52:30;99479.47;;;-1.34;95.94
75650;BME280;64245;51.282;22.494;2023-04-03T04:54:56;99497.53;;;-1.23;95.40
75650;BME280;64245;51.282;22.494;2023-04-03T04:57:21;99491.63;;;-1.30;95.88
75650;BME280;64245;51.282;22.494;2023-04-03T04:59:47;99476.31;;;-1.42;95.74
75650;BME280;64245;51.282;22.494;2023-04-03T05:02:13;99500.84;;;-1.18;94.04
75650;BME280;64245;51.282;22.494;2023-04-03T05:04:38;99496.53;;;-1.21;95.19
75650;BME280;64245;51.282;22.494;2023-04-03T05:07:04;99498.84;;;-1.13;94.44
75650;BME280;64245;51.282;22.494;2023-04-03T05:09:30;99494.47;;;-1.14;93.60
75650;BME280;64245;51.282;22.494;2023-04-03T05:11:56;99500.69;;;-1.15;92.51
75650;BME280;64245;51.282;22.494;2023-04-03T05:14:22;99496.66;;;-1.24;92.74
75650;BME280;64245;51.282;22.494;2023-04-03T05:16:47;99485.50;;;-1.30;92.52
75650;BME280;64245;51.282;22.494;2023-04-03T05:19:13;99498.91;;;-1.15;93.32
75650;BME280;64245;51.282;22.494;2023-04-03T05:21:39;99501.41;;;-1.12;91.77
75650;BME280;64245;51.282;22.494;2023-04-03T05:24:05;99509.22;;;-1.09;91.98
75650;BME280;64245;51.282;22.494;2023-04-03T05:26:34;99499.03;;;-0.97;91.54
75650;BME280;64245;51.282;22.494;2023-04-03T05:29:00;99510.66;;;-1.01;90.84
75650;BME280;64245;51.282;22.494;2023-04-03T05:31:26;99514.19;;;-1.01;89.89
75650;BME280;64245;51.282;22.494;2023-04-03T05:33:55;99514.19;;;-1.01;91.26
75650;BME280;64245;51.282;22.494;2023-04-03T05:36:20;99502.38;;;-0.94;90.67
75650;BME280;64245;51.282;22.494;2023-04-03T05:38:46;99484.69;;;-1.12;91.10
75650;BME280;64245;51.282;22.494;2023-04-03T05:41:13;99503.25;;;-0.93;90.46
75650;BME280;64245;51.282;22.494;2023-04-03T05:43:39;99512.47;;;-1.02;88.52
75650;BME280;64245;51.282;22.494;2023-04-03T05:46:10;99492.44;;;-1.08;89.63
75650;BME280;64245;51.282;22.494;2023-04-03T05:48:36;99523.34;;;-0.89;89.83
75650;BME280;64245;51.282;22.494;2023-04-03T05:51:03;99513.13;;;-0.97;91.34
75650;BME280;64245;51.282;22.494;2023-04-03T05:53:31;99532.69;;;-1.01;88.25
75650;BME280;64245;51.282;22.494;2023-04-03T05:55:57;99539.69;;;-1.00;88.55
75650;BME280;64245;51.282;22.494;2023-04-03T05:58:23;99540.25;;;-0.93;89.36
75650;BME280;64245;51.282;22.494;2023-04-03T06:00:49;99527.19;;;-0.96;87.57
75650;BME280;64245;51.282;22.494;2023-04-03T06:03:15;99544.75;;;-0.95;86.96
75650;BME280;64245;51.282;22.494;2023-04-03T06:05:42;99502.88;;;-1.05;87.28
75650;BME280;64245;51.282;22.494;2023-04-03T06:08:08;99523.34;;;-0.89;87.35
75650;BME280;64245;51.282;22.494;2023-04-03T06:10:34;99542.69;;;-0.68;87.89
75650;BME280;64245;51.282;22.494;2023-04-03T06:13:01;99538.38;;;-0.71;87.50
75650;BME280;64245;51.282;22.494;2023-04-03T06:15:27;99547.25;;;-0.72;87.81
75650;BME280;64245;51.282;22.494;2023-04-03T06:17:54;99535.50;;;-0.85;87.04
75650;BME280;64245;51.282;22.494;2023-04-03T06:20:19;99546.75;;;-0.80;85.56
75650;BME280;64245;51.282;22.494;2023-04-03T06:22:45;99551.97;;;-0.79;87.28
75650;BME280;64245;51.282;22.494;2023-04-03T06:25:11;99541.06;;;-0.91;86.38
75650;BME280;64245;51.282;22.494;2023-04-03T06:27:38;99555.50;;;-0.59;87.23
75650;BME280;64245;51.282;22.494;2023-04-03T06:30:05;99544.28;;;-0.64;86.27
75650;BME280;64245;51.282;22.494;2023-04-03T06:32:32;99567.94;;;-0.61;85.33
75650;BME280;64245;51.282;22.494;2023-04-03T06:34:57;99576.88;;;-0.64;82.87
75650;BME280;64245;51.282;22.494;2023-04-03T06:37:23;99555.72;;;-0.84;87.24
75650;BME280;64245;51.282;22.494;2023-04-03T06:39:54;99576.63;;;-0.78;86.66
75650;BME280;64245;51.282;22.494;2023-04-03T06:42:20;99584.13;;;-0.69;85.44
75650;BME280;64245;51.282;22.494;2023-04-03T06:44:46;99574.19;;;-0.83;83.26
75650;BME280;64245;51.282;22.494;2023-04-03T06:47:16;99577.25;;;-0.73;84.89
75650;BME280;64245;51.282;22.494;2023-04-03T06:49:43;99582.53;;;-0.73;83.22
75650;BME280;64245;51.282;22.494;2023-04-03T06:52:09;99569.47;;;-0.76;85.67
75650;BME280;64245;51.282;22.494;2023-04-03T06:54:35;99573.97;;;-0.78;84.74
75650;BME280;64245;51.282;22.494;2023-04-03T06:57:01;99581.16;;;-0.61;84.63
75650;BME280;64245;51.282;22.494;2023-04-03T06:59:27;99577.25;;;-0.73;85.54
75650;BME280;64245;51.282;22.494;2023-04-03T07:01:53;99562.84;;;-0.66;85.23
75650;BME280;64245;51.282;22.494;2023-04-03T07:04:19;99588.97;;;-0.58;83.78
75650;BME280;64245;51.282;22.494;2023-04-03T07:06:47;99580.75;;;-0.52;84.81
75650;BME280;64245;51.282;22.494;2023-04-03T07:09:14;99563.78;;;-0.67;83.77
75650;BME280;64245;51.282;22.494;2023-04-03T07:11:40;99596.28;;;-0.45;84.50
75650;BME280;64245;51.282;22.494;2023-04-03T07:14:06;99609.03;;;-0.54;82.69
75650;BME280;64245;51.282;22.494;2023-04-03T07:16:34;99608.34;;;-0.58;84.41
75650;BME280;64245;51.282;22.494;2023-04-03T07:19:00;99609.19;;;-0.57;82.69
75650;BME280;64245;51.282;22.494;2023-04-03T07:21:27;99605.88;;;-0.42;84.01
75650;BME280;64245;51.282;22.494;2023-04-03T07:23:54;99617.97;;;-0.18;83.61
75650;BME280;64245;51.282;22.494;2023-04-03T07:26:19;99617.72;;;-0.12;82.34
75650;BME280;64245;51.282;22.494;2023-04-03T07:28:47;99603.50;;;-0.09;82.52
75650;BME280;64245;51.282;22.494;2023-04-03T07:31:14;99622.44;;;0.00;81.39
75650;BME280;64245;51.282;22.494;2023-04-03T07:33:41;99629.63;;;0.17;80.49
75650;BME280;64245;51.282;22.494;2023-04-03T07:36:07;99638.50;;;0.16;80.05
75650;BME280;64245;51.282;22.494;2023-04-03T07:38:35;99624.81;;;0.07;81.07
75650;BME280;64245;51.282;22.494;2023-04-03T07:41:00;99621.03;;;0.12;79.91
75650;BME280;64245;51.282;22.494;2023-04-03T07:43:27;99640.56;;;0.28;80.53
75650;BME280;64245;51.282;22.494;2023-04-03T07:45:52;99649.03;;;0.37;81.96
75650;BME280;64245;51.282;22.494;2023-04-03T07:48:21;99613.09;;;0.12;79.52
75650;BME280;64245;51.282;22.494;2023-04-03T07:50:47;99640.03;;;0.02;75.41
75650;BME280;64245;51.282;22.494;2023-04-03T07:53:13;99642.00;;;-0.02;78.13
75650;BME280;64245;51.282;22.494;2023-04-03T07:55:39;99646.78;;;0.09;77.54
75650;BME280;64245;51.282;22.494;2023-04-03T07:58:13;99646.72;;;0.10;77.06
75650;BME280;64245;51.282;22.494;2023-04-03T08:00:40;99628.78;;;0.17;76.76
75650;BME280;64245;51.282;22.494;2023-04-03T08:03:07;99628.84;;;0.15;76.86
75650;BME280;64245;51.282;22.494;2023-04-03T08:05:37;99638.19;;;0.22;77.48
75650;BME280;64245;51.282;22.494;2023-04-03T08:08:05;99657.97;;;0.34;77.23
75650;BME280;64245;51.282;22.494;2023-04-03T08:10:31;99661.25;;;0.39;76.21
75650;BME280;64245;51.282;22.494;2023-04-03T08:12:57;99643.16;;;0.30;76.67
75650;BME280;64245;51.282;22.494;2023-04-03T08:15:23;99644.59;;;0.37;77.92
75650;BME280;64245;51.282;22.494;2023-04-03T08:17:49;99658.84;;;0.34;76.36
75650;BME280;64245;51.282;22.494;2023-04-03T08:20:16;99668.72;;;0.50;76.81
75650;BME280;64245;51.282;22.494;2023-04-03T08:22:42;99660.25;;;0.42;77.21
75650;BME280;64245;51.282;22.494;2023-04-03T08:25:08;99663.19;;;0.54;76.80
75650;BME280;64245;51.282;22.494;2023-04-03T08:27:34;99672.44;;;0.46;74.88
75650;BME280;64245;51.282;22.494;2023-04-03T08:29:59;99674.00;;;0.50;73.95
75650;BME280;64245;51.282;22.494;2023-04-03T08:32:26;99669.63;;;0.49;73.58
75650;BME280;64245;51.282;22.494;2023-04-03T08:34:52;99675.59;;;0.54;73.92
75650;BME280;64245;51.282;22.494;2023-04-03T08:37:18;99659.97;;;0.48;74.81
75650;BME280;64245;51.282;22.494;2023-04-03T08:39:44;99660.91;;;0.47;73.36
75650;BME280;64245;51.282;22.494;2023-04-03T08:45:10;99677.31;;;0.55;71.76
75650;BME280;64245;51.282;22.494;2023-04-03T08:47:55;99676.06;;;0.62;73.17
75650;BME280;64245;51.282;22.494;2023-04-03T08:50:28;99676.06;;;0.62;72.04
75650;BME280;64245;51.282;22.494;2023-04-03T08:52:58;99682.91;;;0.85;72.92
75650;BME280;64245;51.282;22.494;2023-04-03T08:55:33;99682.19;;;0.81;70.93
75650;BME280;64245;51.282;22.494;2023-04-03T08:58:03;99687.16;;;0.89;72.60
75650;BME280;64245;51.282;22.494;2023-04-03T09:01:19;99676.03;;;0.81;71.21
75650;BME280;64245;51.282;22.494;2023-04-03T09:03:21;99678.84;;;0.78;70.17
75650;BME280;64245;51.282;22.494;2023-04-03T09:08:47;99689.94;;;1.22;72.20
75650;BME280;64245;51.282;22.494;2023-04-03T09:11:41;99679.78;;;1.13;69.04
75650;BME280;64245;51.282;22.494;2023-04-03T09:14:26;99684.25;;;1.12;68.29
75650;BME280;64245;51.282;22.494;2023-04-03T09:17:03;99670.19;;;1.10;68.50
75650;BME280;64245;51.282;22.494;2023-04-03T09:22:17;99660.38;;;1.12;69.73
75650;BME280;64245;51.282;22.494;2023-04-03T09:24:55;99679.72;;;1.31;68.11
75650;BME280;64245;51.282;22.494;2023-04-03T09:27:22;99682.59;;;1.27;67.41
75650;BME280;64245;51.282;22.494;2023-04-03T09:29:49;99685.03;;;1.31;66.04
75650;BME280;64245;51.282;22.494;2023-04-03T09:32:30;99673.78;;;1.26;67.29
75650;BME280;64245;51.282;22.494;2023-04-03T09:37:45;99688.69;;;1.63;66.34
75650;BME280;64245;51.282;22.494;2023-04-03T09:40:35;99696.81;;;1.60;65.17
75650;BME280;64245;51.282;22.494;2023-04-03T09:45:41;99699.72;;;1.73;67.18
75650;BME280;64245;51.282;22.494;2023-04-03T09:50:35;99686.09;;;1.79;67.43
75650;BME280;64245;51.282;22.494;2023-04-03T09:53:07;99707.91;;;1.86;64.19
75650;BME280;64245;51.282;22.494;2023-04-03T09:55:50;99677.81;;;1.85;63.64
75650;BME280;64245;51.282;22.494;2023-04-03T09:58:32;99706.84;;;2.05;66.24
75650;BME280;64245;51.282;22.494;2023-04-03T10:01:01;99671.94;;;1.96;65.96
75650;BME280;64245;51.282;22.494;2023-04-03T10:03:33;99708.34;;;2.11;64.35
75650;BME280;64245;51.282;22.494;2023-04-03T10:06:21;99707.91;;;2.19;63.63
75650;BME280;64245;51.282;22.494;2023-04-03T10:09:03;99733.19;;;2.10;63.04
75650;BME280;64245;51.282;22.494;2023-04-03T10:11:31;99716.78;;;2.02;60.59
75650;BME280;64245;51.282;22.494;2023-04-03T10:14:01;99698.31;;;2.16;64.30
75650;BME280;64245;51.282;22.494;2023-04-03T10:16:34;99719.75;;;2.62;65.89
75650;BME280;64245;51.282;22.494;2023-04-03T10:19:45;99714.50;;;2.76;63.45
75650;BME280;64245;51.282;22.494;2023-04-03T10:27:56;99726.53;;;2.34;60.12
75650;BME280;64245;51.282;22.494;2023-04-03T10:32:57;99708.50;;;2.57;62.39
75650;BME280;64245;51.282;22.494;2023-04-03T10:35:28;99713.81;;;2.57;61.24
75650;BME280;64245;51.282;22.494;2023-04-03T10:38:09;99714.59;;;2.90;61.05
75650;BME280;64245;51.282;22.494;2023-04-03T10:40:43;99718.38;;;2.70;57.76
75650;BME280;64245;51.282;22.494;2023-04-03T10:43:33;99704.41;;;2.98;58.58
75650;BME280;64245;51.282;22.494;2023-04-03T10:46:14;99719.19;;;3.34;58.23
75650;BME280;64245;51.282;22.494;2023-04-03T10:49:15;99725.09;;;3.85;58.23
75650;BME280;64245;51.282;22.494;2023-04-03T10:51:47;99723.03;;;4.32;60.65
75650;BME280;64245;51.282;22.494;2023-04-03T10:54:26;99712.38;;;4.46;62.84
75650;BME280;64245;51.282;22.494;2023-04-03T10:57:04;99721.53;;;4.42;60.72
75650;BME280;64245;51.282;22.494;2023-04-03T11:02:14;99735.00;;;3.97;59.70
75650;BME280;64245;51.282;22.494;2023-04-03T11:04:48;99729.69;;;4.25;58.54
75650;BME280;64245;51.282;22.494;2023-04-03T11:07:23;99724.69;;;3.76;55.44
75650;BME280;64245;51.282;22.494;2023-04-03T11:10:21;99729.09;;;3.62;60.66
75650;BME280;64245;51.282;22.494;2023-04-03T11:12:52;99729.94;;;3.32;58.29
75650;BME280;64245;51.282;22.494;2023-04-03T11:15:22;99738.53;;;3.67;61.82
75650;BME280;64245;51.282;22.494;2023-04-03T11:18:20;99702.16;;;3.52;61.81
75650;BME280;64245;51.282;22.494;2023-04-03T11:21:00;99728.41;;;3.12;58.26
75650;BME280;64245;51.282;22.494;2023-04-03T11:23:32;99714.94;;;3.16;58.90
75650;BME280;64245;51.282;22.494;2023-04-03T11:26:18;99727.13;;;3.65;59.18
75650;BME280;64245;51.282;22.494;2023-04-03T11:28:44;99740.34;;;3.97;61.30
75650;BME280;64245;51.282;22.494;2023-04-03T11:36:47;99711.63;;;3.72;60.62
75650;BME280;64245;51.282;22.494;2023-04-03T11:39:24;99720.41;;;3.88;58.63
75650;BME280;64245;51.282;22.494;2023-04-03T11:41:52;99725.19;;;3.83;58.17
75650;BME280;64245;51.282;22.494;2023-04-03T11:44:35;99723.47;;;3.96;59.11
75650;BME280;64245;51.282;22.494;2023-04-03T11:47:06;99733.88;;;4.01;58.42
75650;BME280;64245;51.282;22.494;2023-04-03T11:49:52;99734.59;;;3.89;57.28
75650;BME280;64245;51.282;22.494;2023-04-03T12:00:49;99724.31;;;3.53;57.08
75650;BME280;64245;51.282;22.494;2023-04-03T12:13:40;99740.84;;;3.43;56.65
75650;BME280;64245;51.282;22.494;2023-04-03T12:16:10;99741.53;;;3.31;55.14
75650;BME280;64245;51.282;22.494;2023-04-03T12:40:42;99734.75;;;3.41;54.65
75650;BME280;64245;51.282;22.494;2023-04-03T12:48:32;99738.19;;;3.12;54.97
75650;BME280;64245;51.282;22.494;2023-04-03T12:51:02;99724.41;;;3.05;53.51
75650;BME280;64245;51.282;22.494;2023-04-03T12:53:31;99728.75;;;3.22;53.11
75650;BME280;64245;51.282;22.494;2023-04-03T12:56:38;99741.53;;;3.16;53.55
75650;BME280;64245;51.282;22.494;2023-04-03T12:59:23;99744.81;;;3.21;55.74
75650;BME280;64245;51.282;22.494;2023-04-03T13:01:57;99744.13;;;3.17;53.59
75650;BME280;64245;51.282;22.494;2023-04-03T13:04:23;99738.28;;;3.10;56.66
75650;BME280;64245;51.282;22.494;2023-04-03T13:06:50;99729.53;;;3.24;56.94
75650;BME280;64245;51.282;22.494;2023-04-03T13:09:20;99734.34;;;3.63;56.54
75650;BME280;64245;51.282;22.494;2023-04-03T13:11:49;99738.25;;;3.72;56.59
75650;BME280;64245;51.282;22.494;2023-04-03T13:14:18;99730.44;;;3.99;54.18
75650;BME280;64245;51.282;22.494;2023-04-03T13:16:56;99707.50;;;3.96;51.76
75650;BME280;64245;51.282;22.494;2023-04-03T13:19:26;99716.56;;;4.36;50.73
75650;BME280;64245;51.282;22.494;2023-04-03T13:22:04;99727.34;;;4.21;52.47
75650;BME280;64245;51.282;22.494;2023-04-03T13:24:34;99734.06;;;4.12;51.36
75650;BME280;64245;51.282;22.494;2023-04-03T13:27:03;99753.84;;;3.94;52.22
75650;BME280;64245;51.282;22.494;2023-04-03T13:29:33;99723.22;;;3.71;51.61
75650;BME280;64245;51.282;22.494;2023-04-03T13:32:00;99735.94;;;3.96;53.43
75650;BME280;64245;51.282;22.494;2023-04-03T13:34:38;99731.59;;;4.09;52.17
75650;BME280;64245;51.282;22.494;2023-04-03T13:37:06;99734.66;;;4.17;53.16
75650;BME280;64245;51.282;22.494;2023-04-03T13:39:36;99721.78;;;4.24;50.36
75650;BME280;64245;51.282;22.494;2023-04-03T13:42:36;99726.28;;;4.23;51.63
75650;BME280;64245;51.282;22.494;2023-04-03T13:47:42;99738.28;;;3.86;53.27
75650;BME280;64245;51.282;22.494;2023-04-03T13:52:43;99724.00;;;3.73;54.32
75650;BME280;64245;51.282;22.494;2023-04-03T13:55:33;99724.00;;;3.73;54.49
75650;BME280;64245;51.282;22.494;2023-04-03T13:58:20;99750.00;;;3.84;53.33
75650;BME280;64245;51.282;22.494;2023-04-03T14:06:06;99755.38;;;3.98;54.46
75650;BME280;64245;51.282;22.494;2023-04-03T14:08:32;99756.44;;;4.09;52.98
75650;BME280;64245;51.282;22.494;2023-04-03T14:10:58;99745.00;;;4.07;51.07
75650;BME280;64245;51.282;22.494;2023-04-03T14:13:24;99744.97;;;3.93;52.13
75650;BME280;64245;51.282;22.494;2023-04-03T14:15:49;99755.97;;;4.17;52.49
75650;BME280;64245;51.282;22.494;2023-04-03T14:18:19;99737.69;;;4.11;50.77
75650;BME280;64245;51.282;22.494;2023-04-03T14:20:46;99745.13;;;4.48;51.10
75650;BME280;64245;51.282;22.494;2023-04-03T14:23:12;99741.06;;;4.57;51.81
75650;BME280;64245;51.282;22.494;2023-04-03T14:25:38;99739.81;;;4.34;53.45
75650;BME280;64245;51.282;22.494;2023-04-03T14:28:20;99748.94;;;4.30;51.13
75650;BME280;64245;51.282;22.494;2023-04-03T14:30:48;99743.41;;;4.19;51.60
75650;BME280;64245;51.282;22.494;2023-04-03T14:33:17;99730.69;;;3.80;52.84
75650;BME280;64245;51.282;22.494;2023-04-03T14:35:45;99752.44;;;4.02;52.29
75650;BME280;64245;51.282;22.494;2023-04-03T14:38:26;99741.47;;;3.93;52.82